createdAt,value
2023-04-16T00:01:23.839Z,2.50
2023-04-16T00:03:52.271Z,2.23
2023-04-16T00:06:20.770Z,2.37
2023-04-16T00:08:49.002Z,1.60
2023-04-16T00:11:17.262Z,3.10
2023-04-16T00:13:45.454Z,4.33
2023-04-16T00:16:15.297Z,4.60
2023-04-16T00:18:43.617Z,1.67
2023-04-16T00:21:11.865Z,2.83
2023-04-16T00:23:40.105Z,3.03
2023-04-16T00:26:08.318Z,3.30
2023-04-16T00:28:36.620Z,4.30
2023-04-16T00:31:04.929Z,3.20
2023-04-16T00:33:34.556Z,5.50
2023-04-16T00:36:02.867Z,2.20
2023-04-16T00:38:32.486Z,3.20
2023-04-16T00:41:00.754Z,3.33
2023-04-16T00:43:29.090Z,3.70
2023-04-16T00:45:58.667Z,2.37
2023-04-16T00:48:28.332Z,2.10
2023-04-16T00:50:58.393Z,5.43
2023-04-16T00:53:27.372Z,3.67
2023-04-16T00:55:56.040Z,3.97
2023-04-16T00:58:24.845Z,3.27
2023-04-16T01:00:53.007Z,4.03
2023-04-16T01:03:21.397Z,2.90
2023-04-16T01:05:50.633Z,2.50
2023-04-16T01:08:20.996Z,4.53
2023-04-16T01:10:49.329Z,4.93
2023-04-16T01:13:17.516Z,4.00
2023-04-16T01:15:45.840Z,3.80
2023-04-16T01:18:17.343Z,6.33
2023-04-16T01:20:46.943Z,3.67
2023-04-16T01:23:15.452Z,4.93
2023-04-16T01:25:43.683Z,2.30
2023-04-16T01:28:11.981Z,3.80
2023-04-16T01:30:40.254Z,4.07
2023-04-16T01:33:08.896Z,3.03
2023-04-16T01:35:37.198Z,3.50
2023-04-16T01:38:07.794Z,4.73
2023-04-16T01:40:36.059Z,6.53
2023-04-16T01:43:04.398Z,3.87
2023-04-16T01:45:33.318Z,3.33
2023-04-16T01:48:02.212Z,4.97
2023-04-16T01:50:31.463Z,6.70
2023-04-16T01:52:59.668Z,10.03
2023-04-16T01:55:29.361Z,4.33
2023-04-16T01:57:57.575Z,7.80
2023-04-16T02:00:25.938Z,3.40
2023-04-16T02:02:54.347Z,6.77
2023-04-16T02:05:22.745Z,6.50
2023-04-16T02:07:50.977Z,8.43
2023-04-16T02:10:20.765Z,7.20
2023-04-16T02:12:51.008Z,7.20
2023-04-16T02:15:19.177Z,4.97
2023-04-16T02:17:48.790Z,4.73
2023-04-16T02:20:18.106Z,4.13
2023-04-16T02:22:46.362Z,7.70
2023-04-16T02:25:14.932Z,4.80
2023-04-16T02:27:43.111Z,4.03
2023-04-16T02:30:13.432Z,4.00
2023-04-16T02:32:41.735Z,4.10
2023-04-16T02:35:09.988Z,7.47
2023-04-16T02:37:40.710Z,5.27
2023-04-16T02:40:09.671Z,7.20
2023-04-16T02:42:37.910Z,11.53
2023-04-16T02:45:06.378Z,6.57
2023-04-16T02:47:35.991Z,7.27
2023-04-16T02:50:04.204Z,6.20
2023-04-16T02:52:32.916Z,5.33
2023-04-16T02:55:01.148Z,4.43
2023-04-16T02:57:29.369Z,6.53
2023-04-16T02:59:57.622Z,3.80
2023-04-16T03:02:26.598Z,4.10
2023-04-16T03:04:56.406Z,5.27
2023-04-16T03:07:24.606Z,5.73
2023-04-16T03:09:52.892Z,6.30
2023-04-16T03:12:21.153Z,6.70
2023-04-16T03:14:49.419Z,6.50
2023-04-16T03:17:17.682Z,5.30
2023-04-16T03:19:46.096Z,8.33
2023-04-16T03:22:15.813Z,5.70
2023-04-16T03:24:44.383Z,8.70
2023-04-16T03:27:12.582Z,5.27
2023-04-16T03:29:41.317Z,6.30
2023-04-16T03:32:09.648Z,6.33
2023-04-16T03:34:37.919Z,6.47
2023-04-16T03:37:06.631Z,4.63
2023-04-16T03:39:36.519Z,7.63
2023-04-16T03:42:04.783Z,6.70
2023-04-16T03:44:32.954Z,7.50
2023-04-16T03:47:01.212Z,7.00
2023-04-16T03:49:29.509Z,8.10
2023-04-16T03:51:57.744Z,5.07
2023-04-16T03:54:25.996Z,8.50
2023-04-16T03:56:57.072Z,8.10
2023-04-16T03:59:25.396Z,5.70
2023-04-16T04:01:53.740Z,10.30
2023-04-16T04:04:22.091Z,5.83
2023-04-16T04:06:50.330Z,6.30
2023-04-16T04:09:18.552Z,6.30
2023-04-16T04:11:46.793Z,12.23
2023-04-16T04:14:16.345Z,11.40
2023-04-16T04:16:44.668Z,7.10
2023-04-16T04:19:13.010Z,5.00
2023-04-16T04:21:41.267Z,7.53
2023-04-16T04:24:09.470Z,5.20
2023-04-16T04:26:37.662Z,6.80
2023-04-16T04:29:06.188Z,5.00
2023-04-16T04:31:35.888Z,7.50
2023-04-16T04:34:04.175Z,6.77
2023-04-16T04:36:32.519Z,12.57
2023-04-16T04:39:00.947Z,7.07
2023-04-16T04:41:29.141Z,6.33
2023-04-16T04:43:57.383Z,6.07
2023-04-16T04:46:25.799Z,6.00
2023-04-16T04:48:55.437Z,7.10
2023-04-16T04:51:23.711Z,7.37
2023-04-16T04:53:52.086Z,3.30
2023-04-16T04:56:20.768Z,2.90
2023-04-16T04:58:49.029Z,5.97
2023-04-16T05:01:17.247Z,7.03
2023-04-16T05:03:46.280Z,5.97
2023-04-16T05:06:16.054Z,6.40
2023-04-16T05:08:44.322Z,4.90
2023-04-16T05:11:12.652Z,5.80
2023-04-16T05:13:40.851Z,6.27
2023-04-16T05:16:09.584Z,6.80
2023-04-16T05:18:37.882Z,7.47
2023-04-16T05:21:06.361Z,5.83
2023-04-16T05:23:35.908Z,4.60
2023-04-16T05:26:04.109Z,6.63
2023-04-16T05:28:32.876Z,5.40
2023-04-16T05:31:01.165Z,5.90
2023-04-16T05:33:29.494Z,6.40
2023-04-16T05:35:57.711Z,8.03
2023-04-16T05:38:25.930Z,6.60
2023-04-16T05:40:55.562Z,3.87
2023-04-16T05:43:23.780Z,4.70
2023-04-16T05:45:52.026Z,6.20
2023-04-16T05:48:20.955Z,4.53
2023-04-16T05:50:49.122Z,5.80
2023-04-16T05:53:18.904Z,5.53
2023-04-16T05:55:47.776Z,4.53
2023-04-16T05:58:17.368Z,5.30
2023-04-16T06:00:45.796Z,7.23
2023-04-16T06:03:14.184Z,3.63
2023-04-16T06:05:44.617Z,7.40
2023-04-16T06:08:12.992Z,5.53
2023-04-16T06:10:41.203Z,5.30
2023-04-16T06:13:09.438Z,6.43
2023-04-16T06:15:39.096Z,7.20
2023-04-16T06:18:07.340Z,6.20
2023-04-16T06:20:35.652Z,5.63
2023-04-16T06:23:03.913Z,6.03
2023-04-16T06:25:32.195Z,8.20
2023-04-16T06:28:00.435Z,5.73
2023-04-16T06:30:28.840Z,5.50
2023-04-16T06:32:58.438Z,6.07
2023-04-16T06:35:26.670Z,4.50
2023-04-16T06:37:54.992Z,5.73
2023-04-16T06:40:23.285Z,6.57
2023-04-16T06:42:51.570Z,6.73
2023-04-16T06:45:19.914Z,6.00
2023-04-16T06:47:48.201Z,6.87
2023-04-16T06:50:18.005Z,5.43
2023-04-16T06:52:46.320Z,4.60
2023-04-16T06:55:14.607Z,4.90
2023-04-16T06:57:42.831Z,5.20
2023-04-16T07:00:11.763Z,5.30
2023-04-16T07:02:40.097Z,4.60
2023-04-16T07:05:09.019Z,5.20
2023-04-16T07:07:38.666Z,4.63
2023-04-16T07:10:07.447Z,5.47
2023-04-16T07:12:35.700Z,6.07
2023-04-16T07:15:03.986Z,6.10
2023-04-16T07:17:32.245Z,6.23
2023-04-16T07:20:00.563Z,7.27
2023-04-16T07:22:28.756Z,4.30
2023-04-16T07:24:58.335Z,3.30
2023-04-16T07:27:27.122Z,6.13
2023-04-16T07:29:55.870Z,6.73
2023-04-16T07:32:24.431Z,6.20
2023-04-16T07:34:52.785Z,5.20
2023-04-16T07:37:21.001Z,4.40
2023-04-16T07:39:49.203Z,6.50
2023-04-16T07:42:18.923Z,6.40
2023-04-16T07:44:47.191Z,7.50
2023-04-16T07:47:15.462Z,4.90
2023-04-16T07:49:44.071Z,4.70
2023-04-16T07:52:12.387Z,5.77
2023-04-16T07:54:40.563Z,6.40
2023-04-16T07:57:08.802Z,4.37
2023-04-16T07:59:38.347Z,6.13
2023-04-16T08:02:07.456Z,3.57
2023-04-16T08:04:36.179Z,6.63
2023-04-16T08:07:04.751Z,2.57
2023-04-16T08:09:32.970Z,4.30
2023-04-16T08:12:01.903Z,3.13
2023-04-16T08:14:30.811Z,6.30
2023-04-16T08:17:00.449Z,5.97
2023-04-16T08:19:28.918Z,7.30
2023-04-16T08:21:57.639Z,3.07
2023-04-16T08:24:26.250Z,6.97
2023-04-16T08:26:55.811Z,6.37
2023-04-16T08:29:26.325Z,4.73
2023-04-16T08:31:54.712Z,4.40
2023-04-16T08:34:24.671Z,6.87
2023-04-16T08:36:52.845Z,7.83
2023-04-16T08:39:21.124Z,6.03
2023-04-16T08:41:49.280Z,8.50
2023-04-16T08:44:21.354Z,5.57
2023-04-16T08:46:49.716Z,7.60
2023-04-16T08:49:19.173Z,6.67
2023-04-16T08:51:52.225Z,6.80
2023-04-16T08:54:23.366Z,5.77
2023-04-16T08:56:52.634Z,7.00
2023-04-16T08:59:21.163Z,7.07
2023-04-16T09:01:49.877Z,4.40
2023-04-16T09:04:18.659Z,4.73
2023-04-16T09:06:47.746Z,10.97
2023-04-16T09:09:18.048Z,6.67
2023-04-16T09:11:47.042Z,7.70
2023-04-16T09:14:15.488Z,6.30
2023-04-16T09:16:43.769Z,5.33
2023-04-16T09:19:12.338Z,6.90
2023-04-16T09:21:41.707Z,3.40
2023-04-16T09:24:10.199Z,6.00
2023-04-16T09:26:39.861Z,4.47
2023-04-16T09:29:09.884Z,6.10
2023-04-16T09:31:38.481Z,6.47
2023-04-16T09:34:07.546Z,6.63
2023-04-16T09:36:36.393Z,6.17
2023-04-16T09:39:05.028Z,7.90
2023-04-16T09:41:35.955Z,6.57
2023-04-16T09:44:06.751Z,5.67
2023-04-16T09:46:36.116Z,5.20
2023-04-16T09:49:07.395Z,8.30
2023-04-16T09:51:38.615Z,6.27
2023-04-16T09:54:07.083Z,7.03
2023-04-16T09:56:35.587Z,3.43
2023-04-16T09:59:03.883Z,6.80
2023-04-16T10:01:33.635Z,10.00
2023-04-16T10:04:08.526Z,6.43
2023-04-16T10:06:36.884Z,9.67
2023-04-16T10:09:08.603Z,4.17
2023-04-16T10:11:37.169Z,7.87
2023-04-16T10:14:05.503Z,10.27
2023-04-16T10:16:35.640Z,6.30
2023-04-16T10:19:04.076Z,7.90
2023-04-16T10:21:34.272Z,8.43
2023-04-16T10:24:03.021Z,9.10
2023-04-16T10:26:31.558Z,8.50
2023-04-16T10:29:00.360Z,8.57
2023-04-16T10:31:29.035Z,15.63
2023-04-16T10:34:00.314Z,10.40
2023-04-16T10:36:28.503Z,12.30
2023-04-16T10:38:59.616Z,9.40
2023-04-16T10:41:28.111Z,14.67
2023-04-16T10:44:09.310Z,10.63
2023-04-16T10:46:39.645Z,12.70
2023-04-16T10:49:17.849Z,13.17
2023-04-16T10:51:54.289Z,9.43
2023-04-16T10:54:24.966Z,19.50
2023-04-16T10:56:53.246Z,13.70
2023-04-16T10:59:22.220Z,21.30
2023-04-16T11:01:51.674Z,13.60
2023-04-16T11:04:31.833Z,17.93
2023-04-16T11:07:03.844Z,18.57
2023-04-16T11:09:47.052Z,11.50
2023-04-16T11:12:16.324Z,19.50
2023-04-16T11:14:44.799Z,20.17
2023-04-16T11:17:13.036Z,18.90
2023-04-16T11:19:47.014Z,15.60
2023-04-16T11:22:17.235Z,18.27
2023-04-16T11:24:47.289Z,19.03
2023-04-16T11:27:16.137Z,18.10
2023-04-16T11:29:46.967Z,26.73
2023-04-16T11:32:22.792Z,19.67
2023-04-16T11:34:52.495Z,20.40
2023-04-16T11:37:22.103Z,20.50
2023-04-16T11:39:51.211Z,16.63
2023-04-16T11:42:23.744Z,22.67
2023-04-16T11:44:55.792Z,20.50
2023-04-16T11:47:24.281Z,24.20
2023-04-16T11:49:54.006Z,17.00
2023-04-16T11:52:28.596Z,19.53
2023-04-16T11:54:56.966Z,17.90
2023-04-16T11:57:28.895Z,20.37
2023-04-16T12:00:02.611Z,20.00
2023-04-16T12:02:41.702Z,26.03
2023-04-16T12:05:27.745Z,24.50
2023-04-16T12:07:57.478Z,21.10
2023-04-16T12:10:27.081Z,24.37
2023-04-16T12:12:55.449Z,23.10
2023-04-16T12:15:25.158Z,28.67
2023-04-16T12:18:07.841Z,26.40
2023-04-16T12:20:41.819Z,25.23
2023-04-16T12:23:11.527Z,30.97
2023-04-16T12:25:40.783Z,30.70
2023-04-16T12:28:08.991Z,27.50
2023-04-16T12:30:51.291Z,31.60
2023-04-16T12:33:21.202Z,27.53
2023-04-16T12:35:49.711Z,33.27
2023-04-16T12:38:19.301Z,28.50
2023-04-16T12:40:47.526Z,27.33
2023-04-16T12:43:16.001Z,37.45
2023-04-16T12:45:44.415Z,32.20
2023-04-16T12:48:12.844Z,33.43
2023-04-16T12:50:44.091Z,34.00
2023-04-16T12:53:12.327Z,42.00
2023-04-16T12:55:41.990Z,38.63
2023-04-16T12:58:12.473Z,34.80
2023-04-16T13:00:41.498Z,40.43
2023-04-16T13:03:09.832Z,37.40
2023-04-16T13:05:38.190Z,33.93
2023-04-16T13:08:06.553Z,26.97
2023-04-16T13:10:34.840Z,33.77
2023-04-16T13:13:04.386Z,29.20
2023-04-16T13:15:32.674Z,32.60
2023-04-16T13:18:00.921Z,34.60
2023-04-16T13:20:29.135Z,37.10
2023-04-16T13:22:57.326Z,36.83
2023-04-16T13:25:25.616Z,29.90
2023-04-16T13:27:53.881Z,36.10
2023-04-16T13:30:23.437Z,31.10
2023-04-16T13:32:51.814Z,32.70
2023-04-16T13:35:21.190Z,30.60
2023-04-16T13:37:49.461Z,33.13
2023-04-16T13:40:17.866Z,28.47
2023-04-16T13:42:46.065Z,34.60
2023-04-16T13:45:14.562Z,32.97
2023-04-16T13:47:44.918Z,25.97
2023-04-16T13:50:13.251Z,32.30
2023-04-16T13:52:41.444Z,30.63
2023-04-16T13:55:10.590Z,28.97
2023-04-16T13:57:38.897Z,23.23
2023-04-16T14:00:07.790Z,28.33
2023-04-16T14:02:36.250Z,27.53
2023-04-16T14:05:06.747Z,30.07
2023-04-16T14:07:36.676Z,28.83
2023-04-16T14:10:05.241Z,34.70
2023-04-16T14:12:33.539Z,33.87
2023-04-16T14:15:04.385Z,24.37
2023-04-16T14:17:32.665Z,38.77
2023-04-16T14:20:00.887Z,26.37
2023-04-16T14:22:30.625Z,29.73
2023-04-16T14:24:58.871Z,27.80
2023-04-16T14:27:27.469Z,28.70
2023-04-16T14:29:55.766Z,20.97
2023-04-16T14:32:24.186Z,28.53
2023-04-16T14:34:52.385Z,25.70
2023-04-16T14:37:20.654Z,27.73
2023-04-16T14:39:50.455Z,29.50
2023-04-16T14:42:18.705Z,32.17
2023-04-16T14:44:46.927Z,26.13
2023-04-16T14:47:15.177Z,30.40
2023-04-16T14:49:43.384Z,29.53
2023-04-16T14:52:11.796Z,29.20
2023-04-16T14:54:40.037Z,30.27
2023-04-16T14:57:09.606Z,32.53
2023-04-16T14:59:37.968Z,36.30
2023-04-16T15:02:06.709Z,30.10
2023-04-16T15:04:35.058Z,29.80
2023-04-16T15:07:03.294Z,30.33
2023-04-16T15:09:32.311Z,28.00
2023-04-16T15:12:00.719Z,33.63
2023-04-16T15:14:30.846Z,29.77
2023-04-16T15:16:59.240Z,21.80
2023-04-16T15:19:27.535Z,38.40
2023-04-16T15:21:56.184Z,34.03
2023-04-16T15:24:24.590Z,32.90
2023-04-16T15:26:52.920Z,29.63
2023-04-16T15:29:21.139Z,33.80
2023-04-16T15:31:50.770Z,31.40
2023-04-16T15:34:18.962Z,26.57
2023-04-16T15:36:47.231Z,30.97
2023-04-16T15:39:15.451Z,32.70
2023-04-16T15:41:57.519Z,36.13
2023-04-16T15:44:31.862Z,31.17
2023-04-16T15:47:01.642Z,31.20
2023-04-16T15:49:29.975Z,28.33
2023-04-16T15:51:58.253Z,28.37
2023-04-16T15:54:26.424Z,30.00
2023-04-16T15:56:54.615Z,35.27
2023-04-16T15:59:22.818Z,27.57
2023-04-16T16:01:51.336Z,33.37
2023-04-16T16:04:22.762Z,31.53
2023-04-16T16:06:51.765Z,27.53
2023-04-16T16:09:26.234Z,27.67
2023-04-16T16:11:54.671Z,28.67
2023-04-16T16:14:24.262Z,34.27
2023-04-16T16:16:52.543Z,30.83
2023-04-16T16:19:22.209Z,17.80
2023-04-16T16:21:50.541Z,35.30
2023-04-16T16:24:19.196Z,29.40
2023-04-16T16:26:47.432Z,24.50
2023-04-16T16:29:15.875Z,31.93
2023-04-16T16:31:44.108Z,24.80
2023-04-16T16:34:20.451Z,28.67
2023-04-16T16:36:50.875Z,32.67
2023-04-16T16:39:22.322Z,27.50
2023-04-16T16:41:52.266Z,30.77
2023-04-16T16:44:20.653Z,28.80
2023-04-16T16:46:49.081Z,31.00
2023-04-16T16:49:17.572Z,30.00
2023-04-16T16:51:46.812Z,24.53
2023-04-16T16:54:16.677Z,31.70
2023-04-16T16:56:44.951Z,29.40
2023-04-16T16:59:13.416Z,31.07
2023-04-16T17:01:41.820Z,27.30
2023-04-16T17:04:10.267Z,28.83
2023-04-16T17:06:38.838Z,33.70
2023-04-16T17:09:07.095Z,30.13
2023-04-16T17:11:36.703Z,33.40
2023-04-16T17:14:04.893Z,28.33
2023-04-16T17:16:33.215Z,30.53
2023-04-16T17:19:01.497Z,33.73
2023-04-16T17:21:29.799Z,28.17
2023-04-16T17:23:58.217Z,30.03
2023-04-16T17:26:26.430Z,30.13
2023-04-16T17:28:57.518Z,25.87
2023-04-16T17:31:27.225Z,33.30
2023-04-16T17:33:55.663Z,33.33
2023-04-16T17:36:25.386Z,31.00
2023-04-16T17:38:53.694Z,28.80
2023-04-16T17:41:22.015Z,31.87
2023-04-16T17:43:50.528Z,43.23
2023-04-16T17:46:20.147Z,31.93
2023-04-16T17:48:48.937Z,36.00
2023-04-16T17:51:17.368Z,35.93
2023-04-16T17:53:45.642Z,28.03
2023-04-16T17:56:14.379Z,26.07
2023-04-16T17:58:42.627Z,35.73
2023-04-16T18:01:10.853Z,37.93
2023-04-16T18:03:42.036Z,35.13
2023-04-16T18:06:10.426Z,26.97
2023-04-16T18:08:38.746Z,24.03
2023-04-16T18:11:10.148Z,31.53
2023-04-16T18:13:38.347Z,42.70
2023-04-16T18:16:07.704Z,31.30
2023-04-16T18:18:36.007Z,27.10
2023-04-16T18:21:05.734Z,29.57
2023-04-16T18:23:33.982Z,30.97
2023-04-16T18:26:02.578Z,29.70
2023-04-16T18:28:30.947Z,32.67
2023-04-16T18:31:03.811Z,33.80
2023-04-16T18:36:03.728Z,26.57
2023-04-16T18:38:33.408Z,28.07
2023-04-16T18:41:02.119Z,27.07
2023-04-16T18:43:33.603Z,27.33
2023-04-16T18:46:01.882Z,27.10
2023-04-16T18:48:30.164Z,24.97
2023-04-16T18:50:58.537Z,31.70
2023-04-16T18:53:27.032Z,30.67
2023-04-16T18:55:56.894Z,33.33
2023-04-16T18:58:25.154Z,24.10
2023-04-16T19:00:54.815Z,24.57
2023-04-16T19:03:23.297Z,26.07
2023-04-16T19:05:51.645Z,25.83
2023-04-16T19:08:19.936Z,23.30
2023-04-16T19:10:48.403Z,25.03
2023-04-16T19:13:18.255Z,29.17
2023-04-16T19:15:46.517Z,30.10
2023-04-16T19:18:14.827Z,27.40
2023-04-16T19:20:43.136Z,30.37
2023-04-16T19:23:11.606Z,27.53
2023-04-16T19:25:41.044Z,28.93
2023-04-16T19:28:09.303Z,25.77
2023-04-16T19:30:40.298Z,29.30
2023-04-16T19:33:08.596Z,28.90
2023-04-16T19:35:36.787Z,29.30
2023-04-16T19:38:05.021Z,29.00
2023-04-16T19:40:33.285Z,22.93
2023-04-16T19:43:01.478Z,25.47
2023-04-16T19:45:29.741Z,29.13
2023-04-16T19:47:59.365Z,22.70
2023-04-16T19:50:27.675Z,23.27
2023-04-16T19:52:55.959Z,24.73
2023-04-16T19:55:24.186Z,27.00
2023-04-16T19:57:52.442Z,24.07
2023-04-16T20:00:21.009Z,25.83
2023-04-16T20:02:49.685Z,25.33
2023-04-16T20:05:19.524Z,27.10
2023-04-16T20:07:47.781Z,24.83
2023-04-16T20:10:17.133Z,24.77
2023-04-16T20:12:45.521Z,24.03
2023-04-16T20:15:13.836Z,27.07
2023-04-16T20:17:42.296Z,30.10
2023-04-16T20:20:11.246Z,28.13
2023-04-16T20:22:41.361Z,24.27
2023-04-16T20:25:10.259Z,25.90
2023-04-16T20:27:38.511Z,25.70
2023-04-16T20:30:07.520Z,23.43
2023-04-16T20:32:36.824Z,26.20
2023-04-16T20:35:10.106Z,22.40
2023-04-16T20:37:39.060Z,23.90
2023-04-16T20:40:10.794Z,28.70
2023-04-16T20:42:40.800Z,29.83
2023-04-16T20:45:11.090Z,18.50
2023-04-16T20:47:39.494Z,13.60
2023-04-16T20:50:08.376Z,28.80
2023-04-16T20:52:37.108Z,18.10
2023-04-16T20:55:05.790Z,29.70
2023-04-16T20:57:35.446Z,22.30
2023-04-16T21:00:05.560Z,24.73
2023-04-16T21:02:34.203Z,20.70
2023-04-16T21:05:03.059Z,25.57
2023-04-16T21:07:31.335Z,30.20
2023-04-16T21:10:00.633Z,27.97
2023-04-16T21:12:28.965Z,28.43
2023-04-16T21:14:58.505Z,28.50
2023-04-16T21:17:26.794Z,30.40
2023-04-16T21:19:54.962Z,24.37
2023-04-16T21:22:23.200Z,25.57
2023-04-16T21:24:51.426Z,32.33
2023-04-16T21:27:19.646Z,30.83
2023-04-16T21:29:47.868Z,30.13
2023-04-16T21:32:17.510Z,40.13
2023-04-16T21:34:45.743Z,30.33
2023-04-16T21:37:13.993Z,29.43
2023-04-16T21:39:42.318Z,31.90
2023-04-16T21:42:10.561Z,25.73
2023-04-16T21:44:38.763Z,25.83
2023-04-16T21:47:07.027Z,31.77
2023-04-16T21:49:36.652Z,30.07
2023-04-16T21:52:04.917Z,34.10
2023-04-16T21:54:33.146Z,35.10
2023-04-16T21:57:01.448Z,26.40
2023-04-16T21:59:29.737Z,26.50
2023-04-16T22:01:57.959Z,32.20
2023-04-16T22:04:36.980Z,32.63
2023-04-16T22:07:08.900Z,25.93
2023-04-16T22:09:37.376Z,26.73
2023-04-16T22:12:07.161Z,27.77
2023-04-16T22:14:36.259Z,33.13
2023-04-16T22:17:04.826Z,28.47
2023-04-16T22:19:34.788Z,31.10
2023-04-16T22:22:03.018Z,33.97
2023-04-16T22:24:32.561Z,32.17
2023-04-16T22:27:01.305Z,32.17
2023-04-16T22:29:29.541Z,32.83
2023-04-16T22:31:57.808Z,29.30
2023-04-16T22:34:26.052Z,32.10
2023-04-16T22:36:54.325Z,29.27
2023-04-16T22:39:22.692Z,38.80
2023-04-16T22:41:52.318Z,31.03
2023-04-16T22:44:20.591Z,30.43
2023-04-16T22:46:48.821Z,29.40
2023-04-16T22:49:17.026Z,31.07
2023-04-16T22:51:45.629Z,26.27
2023-04-16T22:54:14.118Z,31.20
2023-04-16T22:56:42.712Z,21.13
2023-04-16T22:59:12.506Z,28.60
2023-04-16T23:01:42.143Z,30.93
2023-04-16T23:04:10.420Z,27.23
2023-04-16T23:06:40.506Z,29.10
2023-04-16T23:09:08.854Z,27.43
2023-04-16T23:11:37.290Z,30.03
2023-04-16T23:14:05.816Z,32.20
2023-04-16T23:16:35.533Z,35.13
2023-04-16T23:19:03.751Z,25.23
2023-04-16T23:21:32.476Z,26.67
2023-04-16T23:24:00.703Z,34.33
2023-04-16T23:26:29.015Z,25.50
2023-04-16T23:28:57.487Z,29.33
2023-04-16T23:31:25.936Z,21.23
2023-04-16T23:33:55.552Z,25.77
2023-04-16T23:36:23.750Z,29.77
2023-04-16T23:38:52.008Z,25.77
2023-04-16T23:41:20.390Z,26.00
2023-04-16T23:43:48.629Z,34.57
2023-04-16T23:46:16.869Z,30.20
2023-04-16T23:48:45.117Z,30.53
2023-04-16T23:51:14.659Z,29.20
2023-04-16T23:53:42.889Z,35.80
2023-04-16T23:56:11.525Z,34.37
2023-04-16T23:58:39.731Z,28.57
